Time,TemperatureF,DewpointF,PressureIn,WindDirection,WindDirectionDegrees,WindSpeedMPH,WindSpeedGustMPH,Humidity,HourlyPrecipIn,Conditions,Clouds,dailyrainin,SoftwareType,DateUTC
2013-08-22 00:00:00,68.5,68.5,29.92,North,360,0.0,0.0,100,0.00,,,0.00,WSDL version 423,2013-08-22 04:00:00,
2013-08-22 00:10:00,68.5,68.5,29.91,North,360,0.0,0.0,100,0.00,,,0.00,WSDL version 423,2013-08-22 04:10:00,
2013-08-22 00:20:00,68.5,68.5,29.91,North,360,0.0,0.0,100,0.00,,,0.00,WSDL version 423,2013-08-22 04:20:00,
2013-08-22 00:30:00,68.5,68.5,29.92,North,360,0.0,0.0,100,0.00,,,0.00,WSDL version 423,2013-08-22 04:30:00,
2013-08-22 00:40:00,68.4,68.4,29.92,North,360,0.0,0.0,100,0.00,,,0.00,WSDL version 423,2013-08-22 04:40:00,
2013-08-22 00:50:00,68.2,68.2,29.92,North,360,0.0,0.0,100,0.00,,,0.00,WSDL version 423,2013-08-22 04:50:00,
2013-08-22 01:00:00,68.0,68.0,29.92,North,360,0.0,0.0,100,0.00,,,0.00,WSDL version 423,2013-08-22 05:00:00,
2013-08-22 01:10:00,67.8,67.8,29.92,North,360,0.0,0.0,100,0.00,,,0.00,WSDL version 423,2013-08-22 05:10:00,
2013-08-22 01:20:00,67.6,67.6,29.92,North,360,0.0,0.0,100,0.00,,,0.00,WSDL version 423,2013-08-22 05:20:00,
2013-08-22 01:30:00,67.6,67.6,29.92,North,360,0.0,0.0,100,0.00,,,0.00,WSDL version 423,2013-08-22 05:30:00,
2013-08-22 01:40:00,67.5,67.5,29.92,North,360,0.0,0.0,100,0.00,,,0.00,WSDL version 423,2013-08-22 05:40:00,
2013-08-22 01:50:00,67.5,67.5,29.92,North,360,0.0,0.0,100,0.00,,,0.00,WSDL version 423,2013-08-22 05:50:00,
2013-08-22 02:00:00,67.3,67.3,29.92,North,360,0.0,0.0,100,0.00,,,0.00,WSDL version 423,2013-08-22 06:00:00,
2013-08-22 02:10:00,67.3,67.3,29.92,North,360,0.0,0.0,100,0.00,,,0.00,WSDL version 423,2013-08-22 06:10:00,
2013-08-22 02:20:00,67.1,67.1,29.92,North,360,0.0,0.0,100,0.00,,,0.00,WSDL version 423,2013-08-22 06:20:00,
2013-08-22 02:30:00,66.9,66.9,29.92,North,360,0.0,0.0,100,0.00,,,0.00,WSDL version 423,2013-08-22 06:30:00,
2013-08-22 02:40:00,66.6,66.6,29.92,North,360,0.0,0.0,100,0.00,,,0.00,WSDL version 423,2013-08-22 06:40:00,
2013-08-22 02:50:00,66.4,66.4,29.92,North,360,0.0,0.0,100,0.00,,,0.00,WSDL version 423,2013-08-22 06:50:00,
2013-08-22 03:00:00,66.4,66.4,29.92,North,360,0.0,0.0,100,0.00,,,0.00,WSDL version 423,2013-08-22 07:00:00,
2013-08-22 03:10:00,66.2,66.2,29.92,North,360,0.0,0.0,100,0.00,,,0.00,WSDL version 423,2013-08-22 07:10:00,
2013-08-22 03:20:00,66.2,66.2,29.92,North,360,0.0,0.0,100,0.00,,,0.00,WSDL version 423,2013-08-22 07:20:00,
2013-08-22 03:30:00,66.2,66.2,29.92,North,360,0.0,0.0,100,0.00,,,0.00,WSDL version 423,2013-08-22 07:30:00,
2013-08-22 03:40:00,66.2,66.2,29.92,North,360,0.0,0.0,100,0.00,,,0.00,WSDL version 423,2013-08-22 07:40:00,
2013-08-22 03:50:00,66.2,66.2,29.92,North,360,0.0,0.0,100,0.00,,,0.00,WSDL version 423,2013-08-22 07:50:00,
2013-08-22 04:00:00,66.2,66.2,29.91,North,360,0.0,0.0,100,0.00,,,0.00,WSDL version 423,2013-08-22 08:00:00,
2013-08-22 04:10:00,66.0,66.0,29.91,North,360,0.0,0.0,100,0.00,,,0.00,WSDL version 423,2013-08-22 08:10:00,
2013-08-22 04:20:00,66.0,66.0,29.91,North,360,0.0,0.0,100,0.00,,,0.00,WSDL version 423,2013-08-22 08:20:00,
2013-08-22 04:30:00,65.8,65.8,29.91,North,360,0.0,0.0,100,0.00,,,0.00,WSDL version 423,2013-08-22 08:30:00,
2013-08-22 04:40:00,65.7,65.7,29.90,North,360,0.0,0.0,100,0.00,,,0.00,WSDL version 423,2013-08-22 08:40:00,
2013-08-22 04:50:00,65.7,65.7,29.90,North,360,0.0,0.0,100,0.00,,,0.00,WSDL version 423,2013-08-22 08:50:00,
2013-08-22 05:00:00,65.5,65.5,29.90,North,360,0.0,0.0,100,0.00,,,0.00,WSDL version 423,2013-08-22 09:00:00,
2013-08-22 05:10:00,65.3,65.3,29.90,North,360,0.0,0.0,100,0.00,,,0.00,WSDL version 423,2013-08-22 09:10:00,
2013-08-22 05:20:00,65.1,65.1,29.89,North,360,0.0,0.0,100,0.00,,,0.00,WSDL version 423,2013-08-22 09:20:00,
2013-08-22 05:30:00,64.9,64.9,29.89,North,360,0.0,0.0,100,0.00,,,0.00,WSDL version 423,2013-08-22 09:30:00,
2013-08-22 05:40:00,64.8,64.8,29.89,North,360,0.0,0.0,100,0.00,,,0.00,WSDL version 423,2013-08-22 09:40:00,
2013-08-22 05:50:00,64.6,64.6,29.89,North,360,0.0,0.0,100,0.00,,,0.00,WSDL version 423,2013-08-22 09:50:00,
2013-08-22 06:00:00,64.4,64.4,29.89,North,360,0.0,0.0,100,0.00,,,0.00,WSDL version 423,2013-08-22 10:00:00,
2013-08-22 06:10:00,64.6,64.6,29.89,North,360,0.0,0.0,100,0.00,,,0.00,WSDL version 423,2013-08-22 10:10:00,
2013-08-22 06:20:00,64.6,64.6,29.88,North,360,0.0,0.0,100,0.00,,,0.00,WSDL version 423,2013-08-22 10:20:00,
2013-08-22 06:30:00,64.6,64.6,29.88,North,360,0.0,0.0,100,0.00,,,0.00,WSDL version 423,2013-08-22 10:30:00,
2013-08-22 06:40:00,64.7,64.7,29.88,North,360,0.0,0.0,100,0.00,,,0.00,WSDL version 423,2013-08-22 10:40:00,
2013-08-22 06:50:00,64.8,64.8,29.88,North,360,0.0,0.0,100,0.00,,,0.00,WSDL version 423,2013-08-22 10:50:00,
2013-08-22 08:27:00,69.9,69.9,29.88,North,360,0.0,0.0,100,0.00,,,0.00,WSDL version 423,2013-08-22 12:27:00,
2013-08-22 08:37:00,70.7,70.7,29.88,North,360,0.0,0.0,100,0.00,,,0.00,WSDL version 423,2013-08-22 12:37:00,
2013-08-22 08:47:00,71.1,71.1,29.88,North,360,0.0,0.0,100,0.00,,,0.00,WSDL version 423,2013-08-22 12:47:00,
2013-08-22 08:57:00,71.8,71.8,29.87,North,360,0.0,0.0,100,0.00,,,0.00,WSDL version 423,2013-08-22 12:57:00,
2013-08-22 09:07:00,72.2,72.2,29.88,North,360,0.0,0.0,100,0.00,,,0.00,WSDL version 423,2013-08-22 13:07:00,
2013-08-22 09:17:00,73.0,73.0,29.88,North,360,0.0,0.0,100,0.00,,,0.00,WSDL version 423,2013-08-22 13:17:00,
2013-08-22 09:27:00,74.2,74.2,29.88,North,360,0.0,2.7,100,0.00,,,0.00,WSDL version 423,2013-08-22 13:27:00,
2013-08-22 09:37:00,75.6,75.6,29.87,North,360,0.0,0.0,100,0.00,,,0.00,WSDL version 423,2013-08-22 13:37:00,
2013-08-22 09:47:00,76.8,76.8,29.87,North,360,0.0,3.6,100,0.00,,,0.00,WSDL version 423,2013-08-22 13:47:00,
2013-08-22 09:57:00,78.2,78.2,29.87,North,360,0.0,0.0,100,0.00,,,0.00,WSDL version 423,2013-08-22 13:57:00,
2013-08-22 10:07:00,79.3,79.3,29.87,North,360,0.0,0.0,100,0.00,,,0.00,WSDL version 423,2013-08-22 14:07:00,
2013-08-22 10:17:00,80.0,80.0,29.87,North,360,0.0,0.0,100,0.00,,,0.00,WSDL version 423,2013-08-22 14:17:00,
2013-08-22 10:27:00,81.2,81.2,29.87,North,360,0.0,4.0,100,0.00,,,0.00,WSDL version 423,2013-08-22 14:27:00,
2013-08-22 10:37:00,82.6,82.6,29.87,North,360,0.0,2.7,100,0.00,,,0.00,WSDL version 423,2013-08-22 14:37:00,
2013-08-22 10:47:00,83.4,83.4,29.87,North,360,0.0,0.0,100,0.00,,,0.00,WSDL version 423,2013-08-22 14:47:00,
2013-08-22 10:57:00,84.0,84.0,29.86,North,360,0.0,3.1,100,0.00,,,0.00,WSDL version 423,2013-08-22 14:57:00,
2013-08-22 11:07:00,84.4,84.4,29.87,North,360,0.0,3.6,100,0.00,,,0.00,WSDL version 423,2013-08-22 15:07:00,
2013-08-22 11:17:00,84.9,84.9,29.86,North,360,0.0,2.7,100,0.00,,,0.00,WSDL version 423,2013-08-22 15:17:00,
2013-08-22 11:27:00,84.9,84.9,29.86,North,360,0.0,2.7,100,0.00,,,0.00,WSDL version 423,2013-08-22 15:27:00,
2013-08-22 11:37:00,84.9,84.9,29.86,North,360,0.0,3.6,100,0.00,,,0.00,WSDL version 423,2013-08-22 15:37:00,
2013-08-22 11:47:00,85.0,85.0,29.85,North,360,0.0,3.1,100,0.00,,,0.00,WSDL version 423,2013-08-22 15:47:00,
2013-08-22 11:57:00,85.4,85.4,29.85,North,360,0.0,3.6,100,0.00,,,0.00,WSDL version 423,2013-08-22 15:57:00,
2013-08-22 12:07:00,86.1,86.1,29.84,North,360,0.0,2.2,100,0.00,,,0.00,WSDL version 423,2013-08-22 16:07:00,
2013-08-22 12:17:00,86.2,86.2,29.84,North,360,0.0,2.7,100,0.00,,,0.00,WSDL version 423,2013-08-22 16:17:00,
2013-08-22 12:27:00,86.8,86.8,29.83,North,360,0.0,0.0,100,0.00,,,0.00,WSDL version 423,2013-08-22 16:27:00,
2013-08-22 12:37:00,86.8,86.8,29.83,North,360,0.0,2.7,100,0.00,,,0.00,WSDL version 423,2013-08-22 16:37:00,
2013-08-22 12:47:00,87.1,87.1,29.83,North,360,0.0,3.1,100,0.00,,,0.00,WSDL version 423,2013-08-22 16:47:00,
2013-08-22 12:57:00,87.1,87.1,29.82,North,360,0.0,0.0,100,0.00,,,0.00,WSDL version 423,2013-08-22 16:57:00,
2013-08-22 13:07:00,87.4,87.4,29.82,North,360,0.0,3.1,100,0.00,,,0.00,WSDL version 423,2013-08-22 17:07:00,
2013-08-22 13:17:00,87.4,87.4,29.82,North,360,0.0,3.6,100,0.00,,,0.00,WSDL version 423,2013-08-22 17:17:00,
2013-08-22 13:27:00,86.9,86.9,29.82,North,360,0.0,3.6,100,0.00,,,0.00,WSDL version 423,2013-08-22 17:27:00,
2013-08-22 13:37:00,87.2,87.2,29.82,North,360,0.0,3.6,100,0.00,,,0.00,WSDL version 423,2013-08-22 17:37:00,
2013-08-22 13:47:00,87.4,87.4,29.81,North,360,0.4,4.0,100,0.00,,,0.00,WSDL version 423,2013-08-22 17:47:00,
2013-08-22 13:57:00,86.9,86.9,29.81,North,360,0.0,4.9,100,0.00,,,0.00,WSDL version 423,2013-08-22 17:57:00,
2013-08-22 14:07:00,85.6,85.6,29.81,North,360,0.0,3.1,100,0.00,,,0.00,WSDL version 423,2013-08-22 18:07:00,
2013-08-22 14:17:00,85.0,85.0,29.81,North,360,0.0,4.0,100,0.00,,,0.00,WSDL version 423,2013-08-22 18:17:00,
2013-08-22 14:27:00,84.0,84.0,29.80,North,360,0.0,0.0,100,0.00,,,0.00,WSDL version 423,2013-08-22 18:27:00,
2013-08-22 14:37:00,83.7,83.7,29.80,North,360,0.0,0.0,100,0.00,,,0.00,WSDL version 423,2013-08-22 18:37:00,
2013-08-22 14:47:00,83.6,83.6,29.79,North,360,0.0,0.0,100,0.00,,,0.00,WSDL version 423,2013-08-22 18:47:00,
2013-08-22 14:57:00,83.6,83.6,29.78,North,360,0.0,4.5,100,0.00,,,0.00,WSDL version 423,2013-08-22 18:57:00,
2013-08-22 15:07:00,84.3,84.3,29.77,North,360,0.0,3.1,100,0.00,,,0.00,WSDL version 423,2013-08-22 19:07:00,
2013-08-22 15:17:00,84.0,84.0,29.77,North,360,0.7,4.0,100,0.00,,,0.00,WSDL version 423,2013-08-22 19:17:00,
2013-08-22 15:27:00,83.0,83.0,29.76,North,360,0.0,3.1,100,0.00,,,0.00,WSDL version 423,2013-08-22 19:27:00,
2013-08-22 15:37:00,82.4,82.4,29.76,North,360,0.0,3.1,100,0.00,,,0.00,WSDL version 423,2013-08-22 19:37:00,
2013-08-22 15:47:00,82.5,82.5,29.76,North,360,0.0,0.0,100,0.00,,,0.00,WSDL version 423,2013-08-22 19:47:00,
2013-08-22 15:57:00,83.0,83.0,29.76,North,360,0.0,3.1,100,0.00,,,0.00,WSDL version 423,2013-08-22 19:57:00,
2013-08-22 16:07:00,82.1,82.1,29.76,North,360,0.0,3.6,100,0.00,,,0.00,WSDL version 423,2013-08-22 20:07:00,
2013-08-22 16:17:00,81.8,81.8,29.76,North,360,0.0,3.1,100,0.00,,,0.00,WSDL version 423,2013-08-22 20:17:00,
2013-08-22 16:27:00,81.8,81.8,29.76,North,360,0.0,3.6,100,0.00,,,0.00,WSDL version 423,2013-08-22 20:27:00,
2013-08-22 16:37:00,81.3,81.3,29.75,North,360,0.0,4.0,100,0.00,,,0.00,WSDL version 423,2013-08-22 20:37:00,
2013-08-22 16:47:00,81.1,81.1,29.75,North,360,0.0,0.0,100,0.00,,,0.00,WSDL version 423,2013-08-22 20:47:00,
2013-08-22 16:57:00,80.8,80.8,29.75,North,360,0.0,2.2,100,0.00,,,0.00,WSDL version 423,2013-08-22 20:57:00,
2013-08-22 17:07:00,81.6,81.6,29.74,WSW,251,0.0,4.0,100,0.00,,,0.00,WSDL version 423,2013-08-22 21:07:00,
2013-08-22 17:17:00,81.5,81.5,29.74,NE,45,0.0,3.1,100,0.00,,,0.00,WSDL version 423,2013-08-22 21:17:00,
2013-08-22 17:27:00,80.8,80.8,29.74,NW,315,0.0,3.1,100,0.00,,,0.00,WSDL version 423,2013-08-22 21:27:00,
2013-08-22 17:37:00,80.3,80.3,29.73,North,360,0.0,3.1,100,0.00,,,0.00,WSDL version 423,2013-08-22 21:37:00,
2013-08-22 17:47:00,79.8,79.8,29.73,North,360,0.0,2.2,100,0.00,,,0.00,WSDL version 423,2013-08-22 21:47:00,
2013-08-22 17:57:00,79.5,79.5,29.73,North,360,0.0,2.2,100,0.00,,,0.00,WSDL version 423,2013-08-22 21:57:00,
2013-08-22 18:07:00,79.0,79.0,29.73,North,360,0.0,0.0,100,0.00,,,0.00,WSDL version 423,2013-08-22 22:07:00,
2013-08-22 18:17:00,78.8,78.8,29.73,North,360,0.0,3.1,100,0.00,,,0.00,WSDL version 423,2013-08-22 22:17:00,
2013-08-22 18:27:00,78.3,78.3,29.73,North,360,0.0,0.0,100,0.00,,,0.00,WSDL version 423,2013-08-22 22:27:00,
2013-08-22 18:37:00,77.9,77.9,29.73,North,360,0.0,0.0,100,0.00,,,0.00,WSDL version 423,2013-08-22 22:37:00,
2013-08-22 18:47:00,77.5,77.5,29.73,North,360,0.0,0.0,100,0.00,,,0.00,WSDL version 423,2013-08-22 22:47:00,
2013-08-22 18:57:00,77.1,77.1,29.73,North,360,0.0,0.0,100,0.00,,,0.00,WSDL version 423,2013-08-22 22:57:00,
2013-08-22 19:07:00,76.7,76.7,29.73,North,360,0.0,0.0,100,0.00,,,0.00,WSDL version 423,2013-08-22 23:07:00,
2013-08-22 19:17:00,76.3,76.3,29.73,North,360,0.0,2.2,100,0.00,,,0.00,WSDL version 423,2013-08-22 23:17:00,
2013-08-22 19:27:00,75.8,75.8,29.73,North,360,0.0,0.0,100,0.00,,,0.00,WSDL version 423,2013-08-22 23:27:00,
2013-08-22 19:37:00,75.3,75.3,29.73,North,360,0.0,0.0,100,0.00,,,0.00,WSDL version 423,2013-08-22 23:37:00,
2013-08-22 19:47:00,75.0,75.0,29.73,North,360,0.0,0.0,100,0.00,,,0.00,WSDL version 423,2013-08-22 23:47:00,
2013-08-22 19:57:00,74.6,74.6,29.74,North,360,0.0,0.0,100,0.00,,,0.00,WSDL version 423,2013-08-22 23:57:00,
2013-08-22 20:07:00,74.2,74.2,29.74,North,360,0.0,0.0,100,0.00,,,0.00,WSDL version 423,2013-08-23 00:07:00,
2013-08-22 20:17:00,73.9,73.9,29.74,North,360,0.0,0.0,100,0.00,,,0.00,WSDL version 423,2013-08-23 00:17:00,
2013-08-22 20:27:00,73.5,73.5,29.74,North,360,0.0,0.0,100,0.00,,,0.00,WSDL version 423,2013-08-23 00:27:00,
2013-08-22 20:37:00,73.2,73.2,29.74,North,360,0.0,0.0,100,0.00,,,0.00,WSDL version 423,2013-08-23 00:37:00,
2013-08-22 20:47:00,73.0,73.0,29.74,North,360,0.0,0.0,100,0.00,,,0.00,WSDL version 423,2013-08-23 00:47:00,
2013-08-22 20:57:00,72.9,72.9,29.74,North,360,0.0,0.0,100,0.00,,,0.00,WSDL version 423,2013-08-23 00:57:00,
2013-08-22 21:07:00,72.6,72.6,29.74,North,360,0.0,0.0,100,0.00,,,0.00,WSDL version 423,2013-08-23 01:07:00,
2013-08-22 21:17:00,72.3,72.3,29.74,North,360,0.0,0.0,100,0.00,,,0.00,WSDL version 423,2013-08-23 01:17:00,
2013-08-22 21:27:00,72.1,72.1,29.74,North,360,0.0,0.0,100,0.00,,,0.00,WSDL version 423,2013-08-23 01:27:00,
2013-08-22 21:37:00,72.0,72.0,29.74,North,360,0.0,0.0,100,0.00,,,0.00,WSDL version 423,2013-08-23 01:37:00,
2013-08-22 21:47:00,71.8,71.8,29.74,North,360,0.0,0.0,100,0.00,,,0.00,WSDL version 423,2013-08-23 01:47:00,
2013-08-22 21:57:00,71.8,71.8,29.74,North,360,0.0,0.0,100,0.00,,,0.00,WSDL version 423,2013-08-23 01:57:00,
2013-08-22 22:07:00,71.6,71.6,29.73,North,360,0.0,0.0,100,0.00,,,0.00,WSDL version 423,2013-08-23 02:07:00,
2013-08-22 22:17:00,71.4,71.4,29.73,North,360,0.0,0.0,100,0.00,,,0.00,WSDL version 423,2013-08-23 02:17:00,
2013-08-22 22:27:00,71.4,71.4,29.73,North,360,0.0,0.0,100,0.00,,,0.00,WSDL version 423,2013-08-23 02:27:00,
2013-08-22 22:37:00,71.2,71.2,29.73,North,360,0.0,0.0,100,0.00,,,0.00,WSDL version 423,2013-08-23 02:37:00,
2013-08-22 22:47:00,71.1,71.1,29.73,North,360,0.0,3.6,100,0.00,,,0.00,WSDL version 423,2013-08-23 02:47:00,
2013-08-22 22:57:00,70.9,70.9,29.72,North,360,0.0,0.0,100,0.00,,,0.00,WSDL version 423,2013-08-23 02:57:00,
2013-08-22 23:07:00,70.9,70.9,29.72,North,360,0.0,0.0,100,0.00,,,0.00,WSDL version 423,2013-08-23 03:07:00,
2013-08-22 23:17:00,70.7,70.7,29.72,North,360,0.0,0.0,100,0.00,,,0.00,WSDL version 423,2013-08-23 03:17:00,
2013-08-22 23:27:00,70.6,70.6,29.72,North,360,0.0,0.0,100,0.00,,,0.00,WSDL version 423,2013-08-23 03:27:00,
2013-08-22 23:37:00,70.5,70.5,29.72,North,360,0.0,0.0,100,0.00,,,0.00,WSDL version 423,2013-08-23 03:37:00,
2013-08-22 23:47:00,70.5,70.5,29.73,North,360,0.0,0.0,100,0.00,,,0.00,WSDL version 423,2013-08-23 03:47:00,
2013-08-22 23:57:00,70.5,70.5,29.72,North,360,0.0,0.0,100,0.00,,,0.00,WSDL version 423,2013-08-23 03:57:00,